Time;durP1;ratioP1;P1;durP2;ratioP2;P2;SDS_P1;SDS_P2;PMS_P1;PMS_P2;Temp;Humidity;BMP_temperature;BMP_pressure;BME280_temperature;BME280_humidity;BME280_pressure;Samples;Min_cycle;Max_cycle;Signal;HPM_P1;HPM_P2
2022/05/24 00:00:39;;;;;;;;;;;15.40;99.90;;;;;;4998982;28;20437;-64
2022/05/24 00:03:06;;;;;;;;;;;15.40;99.90;;;;;;5005704;28;19932;-64
2022/05/24 00:05:34;;;;;;;;;;;15.40;99.90;;;;;;4997378;28;20340;-65
2022/05/24 00:08:01;;;;;;;;;;;15.40;99.90;;;;;;5002098;28;20016;-65
2022/05/24 00:10:29;;;;;;;;;;;15.40;99.90;;;;;;5004158;28;20044;-65
2022/05/24 00:12:56;;;;;;;;;;;15.40;99.90;;;;;;4989010;28;19952;-64
2022/05/24 00:15:24;;;;;;;;;;;15.40;99.90;;;;;;5007969;28;19925;-64
2022/05/24 00:17:54;;;;;;;;;;;15.40;99.90;;;;;;5006485;28;19955;-65
2022/05/24 00:20:23;;;;;;;;;;;15.40;99.90;;;;;;5001873;28;19936;-64
2022/05/24 00:22:49;;;;;;;;;;;15.40;99.90;;;;;;5007449;28;19925;-65
2022/05/24 00:25:21;;;;;;;;;;;15.40;99.90;;;;;;5001295;28;21602;-64
2022/05/24 00:27:47;;;;;;;;;;;15.40;99.90;;;;;;5004541;28;20923;-64
2022/05/24 00:30:17;;;;;;;;;;;15.40;99.90;;;;;;5006123;28;19933;-64
2022/05/24 00:32:44;;;;;;;;;;;15.30;99.90;;;;;;5006923;28;20428;-64
2022/05/24 00:35:11;;;;;;;;;;;15.30;99.90;;;;;;5001306;28;20013;-64
2022/05/24 00:37:38;;;;;;;;;;;15.30;99.90;;;;;;5018712;28;19948;-65
2022/05/24 00:40:06;;;;;;;;;;;15.30;99.90;;;;;;5012940;28;20027;-64
2022/05/24 00:42:33;;;;;;;;;;;15.30;99.90;;;;;;5011109;28;19972;-65
2022/05/24 00:45:07;;;;;;;;;;;15.30;99.90;;;;;;5009940;28;19932;-64
2022/05/24 00:47:37;;;;;;;;;;;15.30;99.90;;;;;;5006314;28;19935;-65
2022/05/24 00:50:13;;;;;;;;;;;15.20;99.90;;;;;;5012619;28;19925;-65
2022/05/24 00:52:43;;;;;;;;;;;15.20;99.90;;;;;;5003517;28;19926;-64
2022/05/24 00:55:14;;;;;;;;;;;15.20;99.90;;;;;;5010498;28;19941;-66
2022/05/24 00:58:01;;;;;;;;;;;15.20;99.90;;;;;;5002238;28;20012;-64
2022/05/24 01:00:28;;;;;;;;;;;15.20;99.90;;;;;;5007862;28;19932;-64
2022/05/24 01:02:54;;;;;;;;;;;15.10;99.90;;;;;;5007603;28;19932;-64
2022/05/24 01:05:22;;;;;;;;;;;15.10;99.90;;;;;;5004391;28;19934;-64
2022/05/24 01:07:49;;;;;;;;;;;15.10;99.90;;;;;;5012029;28;19932;-64
2022/05/24 01:10:25;;;;;;;;;;;15.10;99.90;;;;;;5007258;28;19937;-64
2022/05/24 01:13:10;;;;;;;;;;;15.10;99.90;;;;;;5018424;28;19933;-64
2022/05/24 01:15:37;;;;;;;;;;;15.00;99.90;;;;;;5008271;28;20017;-64
2022/05/24 01:18:06;;;;;;;;;;;15.00;99.90;;;;;;5008988;28;19932;-64
2022/05/24 01:20:33;;;;;;;;;;;15.00;99.90;;;;;;4919401;28;92113;-65
2022/05/24 01:23:07;;;;;;;;;;;14.90;99.90;;;;;;4882051;28;29190;-64
2022/05/24 01:25:37;;;;;;;;;;;14.90;99.90;;;;;;4883164;28;53098;-65
2022/05/24 01:28:10;;;;;;;;;;;14.80;99.90;;;;;;4867260;28;56112;-64
2022/05/24 01:30:37;;;;;;;;;;;14.80;99.90;;;;;;4874046;28;69118;-64
2022/05/24 01:38:34;;;;;;;;;;;14.80;99.90;;;;;;4972276;28;25087;-64
2022/05/24 01:41:01;;;;;;;;;;;14.80;99.90;;;;;;4915273;28;228160;-64
2022/05/24 01:43:28;;;;;;;;;;;14.80;99.90;;;;;;4814700;28;236176;-64
2022/05/24 01:46:03;;;;;;;;;;;14.80;99.90;;;;;;4853697;28;112154;-64
2022/05/24 01:48:32;;;;;;;;;;;14.80;99.90;;;;;;4985185;28;25065;-64
2022/05/24 01:51:01;;;;;;;;;;;14.70;99.90;;;;;;5004716;28;19933;-64
2022/05/24 01:53:31;;;;;;;;;;;14.60;99.90;;;;;;5004877;28;19926;-65
2022/05/24 01:56:20;;;;;;;;;;;14.50;99.90;;;;;;4840201;28;93141;-64
2022/05/24 01:58:49;;;;;;;;;;;14.30;99.90;;;;;;4991117;28;25122;-64
2022/05/24 02:01:34;;;;;;;;;;;14.20;99.90;;;;;;5020009;28;19937;-64
2022/05/24 02:04:03;;;;;;;;;;;14.10;99.90;;;;;;5005814;28;19926;-64
2022/05/24 02:06:30;;;;;;;;;;;13.90;99.90;;;;;;4943237;28;25070;-64
2022/05/24 02:08:57;;;;;;;;;;;13.80;99.90;;;;;;5011105;28;20377;-64
2022/05/24 02:11:26;;;;;;;;;;;13.70;99.90;;;;;;5010880;28;19926;-64
2022/05/24 02:13:56;;;;;;;;;;;13.60;99.90;;;;;;4998310;28;20016;-65
2022/05/24 02:16:23;;;;;;;;;;;13.50;99.90;;;;;;5009638;28;20015;-65
2022/05/24 02:18:52;;;;;;;;;;;13.50;99.90;;;;;;5009913;28;19975;-64
2022/05/24 02:21:19;;;;;;;;;;;13.50;99.90;;;;;;5009650;28;19926;-64
2022/05/24 02:23:48;;;;;;;;;;;13.40;99.90;;;;;;5007548;28;19925;-64
2022/05/24 02:26:16;;;;;;;;;;;13.40;99.90;;;;;;5007588;28;19987;-65
2022/05/24 02:28:43;;;;;;;;;;;13.40;99.90;;;;;;5005384;28;19995;-65
2022/05/24 02:31:12;;;;;;;;;;;13.30;99.90;;;;;;5006876;28;19925;-64
2022/05/24 02:33:39;;;;;;;;;;;13.30;99.90;;;;;;4998467;28;20004;-64
2022/05/24 02:36:06;;;;;;;;;;;13.30;99.90;;;;;;4980866;28;25083;-64
2022/05/24 02:38:32;;;;;;;;;;;13.30;99.90;;;;;;5004908;28;19926;-64
2022/05/24 02:43:44;;;;;;;;;;;13.30;99.90;;;;;;5001357;28;20321;-64
2022/05/24 02:46:11;;;;;;;;;;;13.20;99.90;;;;;;4957821;28;25139;-64
2022/05/24 02:48:38;;;;;;;;;;;13.20;99.90;;;;;;5008350;28;19994;-65
2022/05/24 02:51:09;;;;;;;;;;;13.10;99.90;;;;;;5003849;28;19925;-65
2022/05/24 02:53:36;;;;;;;;;;;13.10;99.90;;;;;;5002002;28;20395;-65
2022/05/24 02:56:03;;;;;;;;;;;13.20;99.90;;;;;;5008883;28;19931;-65
2022/05/24 02:58:30;;;;;;;;;;;13.30;99.90;;;;;;5001024;28;19930;-65
2022/05/24 03:00:57;;;;;;;;;;;13.30;99.90;;;;;;5001125;28;19925;-65
2022/05/24 03:03:26;;;;;;;;;;;13.40;99.90;;;;;;5002598;28;19925;-65
2022/05/24 03:05:53;;;;;;;;;;;13.50;99.90;;;;;;5003759;28;19937;-65
2022/05/24 03:11:07;;;;;;;;;;;13.70;99.90;;;;;;5003684;28;19937;-65
2022/05/24 03:16:19;;;;;;;;;;;13.90;99.90;;;;;;4998721;28;19930;-65
2022/05/24 03:18:46;;;;;;;;;;;14.00;99.90;;;;;;5005451;28;19933;-65
2022/05/24 03:21:16;;;;;;;;;;;13.90;99.90;;;;;;5005485;28;20001;-65
2022/05/24 03:23:43;;;;;;;;;;;14.00;99.90;;;;;;4999082;28;20004;-65
2022/05/24 03:26:14;;;;;;;;;;;14.00;99.90;;;;;;5007339;28;19973;-65
2022/05/24 03:28:41;;;;;;;;;;;13.90;99.90;;;;;;5005946;28;19926;-65
2022/05/24 03:31:08;;;;;;;;;;;13.90;99.90;;;;;;4999942;28;19925;-65
2022/05/24 03:33:35;;;;;;;;;;;13.80;99.90;;;;;;5017756;28;19933;-65
2022/05/24 03:36:02;;;;;;;;;;;13.70;99.90;;;;;;5003553;28;20016;-66
2022/05/24 03:38:28;;;;;;;;;;;13.70;99.90;;;;;;5004614;28;20032;-65
2022/05/24 03:40:55;;;;;;;;;;;13.80;99.90;;;;;;5002775;28;20671;-65
2022/05/24 03:43:23;;;;;;;;;;;13.80;99.90;;;;;;5003818;28;19926;-65
2022/05/24 03:45:59;;;;;;;;;;;13.80;99.90;;;;;;5004601;28;19930;-65
2022/05/24 03:48:29;;;;;;;;;;;13.80;99.90;;;;;;5004933;28;19926;-66
2022/05/24 03:50:56;;;;;;;;;;;13.80;99.90;;;;;;5005472;28;19936;-65
2022/05/24 03:53:23;;;;;;;;;;;13.80;99.90;;;;;;5003715;28;19932;-65
2022/05/24 03:55:50;;;;;;;;;;;13.70;99.90;;;;;;5003871;28;19932;-66
2022/05/24 03:58:17;;;;;;;;;;;13.70;99.90;;;;;;5000975;28;19926;-65
2022/05/24 04:00:45;;;;;;;;;;;13.70;99.90;;;;;;5008319;28;20380;-65
2022/05/24 04:03:13;;;;;;;;;;;13.80;99.90;;;;;;5004472;28;20380;-65
2022/05/24 04:05:43;;;;;;;;;;;13.90;99.90;;;;;;5003774;28;19984;-65
2022/05/24 04:08:10;;;;;;;;;;;13.90;99.90;;;;;;5006062;28;20052;-68
2022/05/24 04:10:37;;;;;;;;;;;14.00;99.90;;;;;;5006032;28;20315;-66
2022/05/24 04:13:06;;;;;;;;;;;14.00;99.90;;;;;;4997878;28;19933;-65
2022/05/24 04:15:32;;;;;;;;;;;14.00;99.90;;;;;;5009118;28;19933;-65
2022/05/24 04:17:59;;;;;;;;;;;14.10;99.90;;;;;;5005770;28;19934;-65
2022/05/24 04:20:26;;;;;;;;;;;14.20;99.90;;;;;;5007511;28;20468;-65
2022/05/24 04:22:54;;;;;;;;;;;14.20;99.90;;;;;;5013770;28;19925;-66
2022/05/24 04:25:21;;;;;;;;;;;14.30;99.90;;;;;;5006104;28;19925;-65
2022/05/24 04:27:48;;;;;;;;;;;14.40;99.90;;;;;;5016309;28;19926;-65
2022/05/24 04:30:15;;;;;;;;;;;14.50;99.90;;;;;;5010697;28;20020;-65
2022/05/24 04:32:44;;;;;;;;;;;14.50;99.90;;;;;;5006374;28;19932;-64
2022/05/24 04:35:11;;;;;;;;;;;14.60;99.90;;;;;;5004626;28;19944;-65
2022/05/24 04:37:38;;;;;;;;;;;14.60;99.90;;;;;;5010262;28;20291;-65
2022/05/24 04:40:06;;;;;;;;;;;14.70;99.90;;;;;;5009796;28;19926;-65
2022/05/24 04:42:32;;;;;;;;;;;14.80;99.90;;;;;;5007946;28;19931;-64
2022/05/24 04:45:01;;;;;;;;;;;14.80;99.90;;;;;;5006350;28;19929;-66
2022/05/24 04:47:29;;;;;;;;;;;14.90;99.90;;;;;;5010841;28;19939;-65
2022/05/24 04:49:56;;;;;;;;;;;14.90;99.90;;;;;;5007868;28;19926;-65
2022/05/24 04:52:25;;;;;;;;;;;14.90;99.90;;;;;;5006703;28;19936;-64
2022/05/24 04:54:52;;;;;;;;;;;14.90;99.90;;;;;;5008985;28;20411;-65
2022/05/24 04:57:20;;;;;;;;;;;14.90;99.90;;;;;;5008296;28;19925;-65
2022/05/24 04:59:47;;;;;;;;;;;14.90;99.90;;;;;;5009073;28;19929;-65
2022/05/24 05:02:17;;;;;;;;;;;15.00;99.90;;;;;;5003871;28;19933;-66
2022/05/24 05:04:46;;;;;;;;;;;15.00;99.90;;;;;;4988010;28;20385;-64
2022/05/24 05:07:16;;;;;;;;;;;15.00;99.90;;;;;;5001543;28;20581;-65
2022/05/24 05:09:43;;;;;;;;;;;15.00;99.90;;;;;;5035111;28;19926;-66
2022/05/24 05:12:10;;;;;;;;;;;15.10;99.90;;;;;;5000780;28;20068;-62
2022/05/24 05:14:38;;;;;;;;;;;15.20;99.90;;;;;;4995830;28;19929;-64
2022/05/24 05:17:05;;;;;;;;;;;15.40;99.90;;;;;;4999408;28;19929;-65
2022/05/24 05:19:33;;;;;;;;;;;15.50;99.90;;;;;;5001621;28;19976;-65
2022/05/24 05:22:02;;;;;;;;;;;15.50;99.90;;;;;;5000860;28;20389;-66
2022/05/24 05:24:29;;;;;;;;;;;15.60;99.90;;;;;;5003843;28;19936;-63
2022/05/24 05:26:56;;;;;;;;;;;15.60;99.90;;;;;;4998668;28;20316;-65
2022/05/24 05:32:08;;;;;;;;;;;15.70;99.90;;;;;;5004410;28;20451;-65
2022/05/24 05:34:35;;;;;;;;;;;15.80;99.90;;;;;;4998308;28;19965;-65
2022/05/24 05:37:05;;;;;;;;;;;15.80;99.90;;;;;;5001851;28;19944;-64
2022/05/24 05:39:34;;;;;;;;;;;15.70;99.90;;;;;;5003658;28;20312;-65
2022/05/24 05:42:01;;;;;;;;;;;15.60;99.90;;;;;;5002445;28;19947;-65
2022/05/24 05:44:29;;;;;;;;;;;15.60;99.90;;;;;;5000913;28;19929;-65
2022/05/24 05:46:56;;;;;;;;;;;15.50;99.90;;;;;;5003867;28;20344;-65
2022/05/24 05:49:23;;;;;;;;;;;15.60;99.90;;;;;;5006246;28;19926;-65
2022/05/24 05:51:50;;;;;;;;;;;15.60;99.90;;;;;;5009072;28;19932;-65
2022/05/24 05:54:16;;;;;;;;;;;15.80;99.90;;;;;;5002572;28;19929;-65
2022/05/24 05:56:43;;;;;;;;;;;15.70;99.90;;;;;;5008543;28;20448;-64
2022/05/24 05:59:10;;;;;;;;;;;15.70;99.90;;;;;;4997962;28;19933;-64
2022/05/24 06:01:36;;;;;;;;;;;15.50;99.90;;;;;;5003515;28;19930;-65
2022/05/24 06:04:03;;;;;;;;;;;15.30;99.90;;;;;;5005091;28;19932;-63
2022/05/24 06:06:33;;;;;;;;;;;14.90;99.90;;;;;;5003742;28;19956;-63
2022/05/24 06:08:59;;;;;;;;;;;14.50;99.90;;;;;;4997166;28;20114;-63
2022/05/24 06:11:26;;;;;;;;;;;14.30;99.90;;;;;;4995244;28;19929;-63
2022/05/24 06:13:53;;;;;;;;;;;14.10;99.90;;;;;;4996885;28;19926;-63
2022/05/24 06:16:19;;;;;;;;;;;14.10;99.90;;;;;;5002575;28;20019;-63
2022/05/24 06:18:49;;;;;;;;;;;14.00;99.90;;;;;;4998325;28;19933;-63
2022/05/24 06:21:16;;;;;;;;;;;14.00;99.90;;;;;;4997720;28;20084;-63
2022/05/24 06:23:42;;;;;;;;;;;14.00;99.90;;;;;;5005287;28;20416;-64
2022/05/24 06:26:09;;;;;;;;;;;14.10;99.90;;;;;;5005115;28;19926;-64
2022/05/24 06:28:35;;;;;;;;;;;14.20;99.90;;;;;;5000830;28;19931;-63
2022/05/24 06:31:02;;;;;;;;;;;14.30;99.90;;;;;;5003667;28;19948;-63
2022/05/24 06:33:29;;;;;;;;;;;14.40;99.90;;;;;;5002593;28;19941;-63
2022/05/24 06:35:56;;;;;;;;;;;14.60;99.90;;;;;;4996960;28;20359;-62
2022/05/24 06:38:23;;;;;;;;;;;15.00;99.90;;;;;;4998602;28;20012;-62
2022/05/24 06:40:52;;;;;;;;;;;15.40;99.90;;;;;;5001467;28;19929;-63
2022/05/24 06:43:19;;;;;;;;;;;15.70;99.90;;;;;;5006403;28;19930;-64
2022/05/24 06:45:46;;;;;;;;;;;15.90;99.90;;;;;;5004199;28;19925;-64
2022/05/24 06:48:12;;;;;;;;;;;16.10;99.90;;;;;;5001109;28;20043;-64
2022/05/24 06:50:40;;;;;;;;;;;16.20;99.90;;;;;;5001674;28;19929;-65
2022/05/24 06:53:09;;;;;;;;;;;16.30;99.90;;;;;;5003208;28;19983;-65
2022/05/24 06:55:37;;;;;;;;;;;16.40;99.90;;;;;;5004518;28;20388;-64
2022/05/24 06:58:04;;;;;;;;;;;16.60;99.90;;;;;;4993468;28;19930;-63
2022/05/24 07:03:16;;;;;;;;;;;16.90;99.90;;;;;;4999203;28;19930;-64
2022/05/24 07:05:44;;;;;;;;;;;17.10;99.90;;;;;;5000479;28;19933;-65
2022/05/24 07:08:10;;;;;;;;;;;17.20;99.90;;;;;;4997783;28;20000;-65
2022/05/24 07:10:40;;;;;;;;;;;17.20;99.90;;;;;;5002189;28;19956;-65
2022/05/24 07:13:10;;;;;;;;;;;17.00;99.90;;;;;;4999908;28;19939;-65
2022/05/24 07:15:37;;;;;;;;;;;16.80;99.90;;;;;;4994564;28;19945;-65
2022/05/24 07:18:04;;;;;;;;;;;16.70;99.90;;;;;;5003008;28;19930;-65
2022/05/24 07:20:33;;;;;;;;;;;16.70;99.90;;;;;;5003806;28;19936;-65
2022/05/24 07:23:11;;;;;;;;;;;16.70;99.90;;;;;;5005111;28;19925;-64
2022/05/24 07:25:39;;;;;;;;;;;16.70;99.90;;;;;;5004622;28;19931;-64
2022/05/24 07:28:07;;;;;;;;;;;16.80;99.90;;;;;;5005835;28;19925;-65
2022/05/24 07:30:33;;;;;;;;;;;17.20;99.90;;;;;;5005847;28;19999;-65
2022/05/24 07:33:00;;;;;;;;;;;17.70;99.90;;;;;;5010450;28;20004;-62
2022/05/24 07:35:27;;;;;;;;;;;18.30;99.90;;;;;;5007762;28;19976;-63
2022/05/24 07:37:54;;;;;;;;;;;18.70;99.90;;;;;;5001235;28;19961;-62
2022/05/24 07:45:53;;;;;;;;;;;18.10;99.90;;;;;;4937789;28;28076;-64
2022/05/24 07:48:23;;;;;;;;;;;17.80;99.90;;;;;;4996887;28;25131;-61
2022/05/24 07:50:51;;;;;;;;;;;17.70;99.90;;;;;;5000767;28;20032;-64
2022/05/24 07:53:18;;;;;;;;;;;17.80;99.90;;;;;;5004877;28;20012;-64
2022/05/24 07:55:44;;;;;;;;;;;18.30;99.90;;;;;;5001999;28;19933;-63
2022/05/24 07:58:12;;;;;;;;;;;19.50;99.90;;;;;;4998854;28;28136;-62
2022/05/24 08:00:42;;;;;;;;;;;19.80;99.90;;;;;;4928663;28;31083;-63
2022/05/24 08:03:12;;;;;;;;;;;19.80;99.90;;;;;;4924593;28;26094;-62
2022/05/24 08:05:39;;;;;;;;;;;20.40;99.90;;;;;;5002801;28;20382;-63
2022/05/24 08:08:08;;;;;;;;;;;22.50;99.90;;;;;;4998171;28;19933;-63
2022/05/24 08:10:38;;;;;;;;;;;22.80;99.90;;;;;;4991678;28;20298;-64
2022/05/24 08:13:07;;;;;;;;;;;23.80;99.90;;;;;;4998266;28;19929;-64
2022/05/24 08:15:34;;;;;;;;;;;24.30;99.90;;;;;;4983491;28;21065;-64
2022/05/24 08:18:01;;;;;;;;;;;24.30;99.90;;;;;;4997346;28;25072;-63
2022/05/24 08:20:29;;;;;;;;;;;23.70;99.90;;;;;;5000706;28;19940;-64
2022/05/24 08:22:57;;;;;;;;;;;23.10;99.90;;;;;;5001093;28;19933;-63
2022/05/24 08:25:25;;;;;;;;;;;22.80;99.90;;;;;;4904909;28;31120;-60
2022/05/24 08:27:51;;;;;;;;;;;22.50;99.90;;;;;;4892724;28;33180;-63
2022/05/24 08:30:22;;;;;;;;;;;22.50;99.90;;;;;;4898032;28;30072;-61
2022/05/24 08:32:48;;;;;;;;;;;22.80;99.90;;;;;;4888419;28;40121;-63
2022/05/24 08:35:17;;;;;;;;;;;23.50;99.90;;;;;;4973750;28;25166;-63
2022/05/24 08:37:44;;;;;;;;;;;24.00;99.90;;;;;;5002725;28;20535;-60
2022/05/24 08:40:12;;;;;;;;;;;23.90;99.90;;;;;;4998088;28;19936;-59
2022/05/24 08:42:47;;;;;;;;;;;23.80;99.90;;;;;;5003566;28;19932;-61
2022/05/24 08:50:49;;;;;;;;;;;21.70;99.90;;;;;;5002854;28;19929;-62
2022/05/24 08:53:26;;;;;;;;;;;22.20;99.90;;;;;;5004906;28;19925;-62
2022/05/24 08:55:53;;;;;;;;;;;23.10;99.90;;;;;;5004557;28;20284;-62
2022/05/24 08:58:40;;;;;;;;;;;23.80;99.90;;;;;;5008558;28;20012;-61
2022/05/24 09:01:18;;;;;;;;;;;23.60;99.90;;;;;;5005993;28;20426;-62
2022/05/24 09:03:45;;;;;;;;;;;23.40;99.90;;;;;;5010472;28;19956;-62
2022/05/24 09:06:32;;;;;;;;;;;23.90;99.90;;;;;;5007257;28;19936;-61
2022/05/24 09:09:07;;;;;;;;;;;23.70;99.90;;;;;;5002999;28;19996;-62
2022/05/24 09:11:54;;;;;;;;;;;22.70;99.90;;;;;;5005236;28;19941;-62
2022/05/24 09:14:23;;;;;;;;;;;22.20;99.90;;;;;;5014974;28;19925;-62
2022/05/24 09:17:09;;;;;;;;;;;23.20;99.90;;;;;;5005958;28;20017;-62
2022/05/24 09:19:39;;;;;;;;;;;23.70;99.90;;;;;;5008463;28;20008;-61
2022/05/24 09:22:11;;;;;;;;;;;23.90;99.90;;;;;;5006387;28;20060;-62
2022/05/24 09:24:42;;;;;;;;;;;23.70;99.90;;;;;;5006244;28;20599;-62
2022/05/24 09:27:23;;;;;;;;;;;23.10;99.90;;;;;;5007375;28;19972;-61
2022/05/24 09:29:50;;;;;;;;;;;22.70;99.90;;;;;;5006800;28;19925;-60
2022/05/24 09:32:39;;;;;;;;;;;23.30;99.90;;;;;;5021900;28;20008;-62
2022/05/24 09:35:09;;;;;;;;;;;23.70;99.90;;;;;;5007698;28;19932;-62
2022/05/24 09:37:36;;;;;;;;;;;23.70;99.90;;;;;;5001281;28;20300;-60
2022/05/24 09:40:06;;;;;;;;;;;24.10;99.90;;;;;;5006295;28;19929;-62
2022/05/24 09:42:36;;;;;;;;;;;23.90;99.90;;;;;;5007228;28;19940;-62
2022/05/24 09:45:10;;;;;;;;;;;23.90;99.90;;;;;;4980578;28;19953;-61
2022/05/24 09:47:43;;;;;;;;;;;24.10;99.90;;;;;;4997288;28;19945;-62
2022/05/24 09:50:39;;;;;;;;;;;24.70;99.90;;;;;;5004371;28;20377;-61
2022/05/24 09:53:09;;;;;;;;;;;25.30;99.90;;;;;;4992299;28;19926;-62
2022/05/24 09:55:43;;;;;;;;;;;25.30;99.90;;;;;;5006258;28;19926;-63
2022/05/24 09:58:28;;;;;;;;;;;25.50;99.90;;;;;;4996139;28;20294;-62
2022/05/24 10:00:56;;;;;;;;;;;25.40;99.90;;;;;;5002700;28;20004;-63
2022/05/24 10:03:25;;;;;;;;;;;25.40;99.90;;;;;;5005261;28;20426;-61
2022/05/24 10:06:10;;;;;;;;;;;25.20;99.90;;;;;;5007997;28;19930;-60
2022/05/24 10:08:38;;;;;;;;;;;24.90;99.90;;;;;;5005108;28;19931;-60
2022/05/24 10:11:06;;;;;;;;;;;24.60;99.90;;;;;;5003405;28;19980;-61
2022/05/24 10:13:32;;;;;;;;;;;23.80;99.90;;;;;;5003667;28;20308;-61
2022/05/24 10:16:17;;;;;;;;;;;22.90;99.90;;;;;;5007771;28;19925;-61
2022/05/24 10:18:56;;;;;;;;;;;22.90;99.90;;;;;;5002628;28;20008;-63
2022/05/24 10:21:23;;;;;;;;;;;23.30;99.90;;;;;;5008268;28;19932;-63
2022/05/24 10:23:52;;;;;;;;;;;23.10;99.90;;;;;;5009796;28;19954;-62
2022/05/24 10:26:32;;;;;;;;;;;23.10;99.90;;;;;;5009674;28;19930;-66
2022/05/24 10:29:01;;;;;;;;;;;23.90;99.90;;;;;;5002409;28;19932;-63
2022/05/24 10:31:27;;;;;;;;;;;24.00;99.90;;;;;;5004376;28;20536;-64
2022/05/24 10:40:15;;;;;;;;;;;24.00;99.90;;;;;;5006412;28;19941;-65
2022/05/24 10:42:43;;;;;;;;;;;23.90;99.90;;;;;;4992786;28;19965;-65
2022/05/24 10:45:14;;;;;;;;;;;23.30;99.90;;;;;;5001501;28;19935;-65
2022/05/24 10:47:53;;;;;;;;;;;22.50;99.90;;;;;;4998546;28;19931;-65
2022/05/24 10:50:30;;;;;;;;;;;21.80;99.90;;;;;;4997067;28;19936;-65
2022/05/24 10:53:12;;;;;;;;;;;21.10;99.90;;;;;;5000541;28;20024;-64
2022/05/24 10:55:41;;;;;;;;;;;21.10;99.90;;;;;;4995401;28;21045;-64
2022/05/24 10:58:11;;;;;;;;;;;22.00;99.90;;;;;;4999053;28;19925;-63
2022/05/24 11:00:46;;;;;;;;;;;22.10;99.90;;;;;;5005301;28;19936;-62
2022/05/24 11:03:17;;;;;;;;;;;22.30;99.90;;;;;;5003287;28;19926;-65
2022/05/24 11:05:44;;;;;;;;;;;22.00;99.90;;;;;;5001142;28;19976;-64
2022/05/24 11:08:30;;;;;;;;;;;21.80;99.90;;;;;;5001589;28;19931;-65
2022/05/24 11:11:10;;;;;;;;;;;21.70;99.90;;;;;;4998373;28;19929;-65
2022/05/24 11:13:42;;;;;;;;;;;22.30;99.90;;;;;;5004838;28;20012;-64
2022/05/24 11:16:33;;;;;;;;;;;22.90;99.50;;;;;;5001167;28;19941;-63
2022/05/24 11:19:00;;;;;;;;;;;23.30;99.10;;;;;;5000720;28;19936;-64
2022/05/24 11:21:39;;;;;;;;;;;23.00;99.40;;;;;;5003224;28;19936;-62
2022/05/24 11:24:14;;;;;;;;;;;22.90;98.90;;;;;;5001090;28;19929;-64
2022/05/24 11:26:46;;;;;;;;;;;22.60;99.90;;;;;;5007524;28;19956;-63
2022/05/24 11:29:39;;;;;;;;;;;22.70;99.90;;;;;;5004483;28;19940;-65
2022/05/24 11:32:07;;;;;;;;;;;22.80;99.90;;;;;;5004017;28;19926;-63
2022/05/24 11:34:35;;;;;;;;;;;23.30;99.90;;;;;;5007034;28;19929;-63
2022/05/24 11:37:04;;;;;;;;;;;23.30;99.90;;;;;;4999985;28;19968;-63
2022/05/24 11:39:37;;;;;;;;;;;23.20;99.90;;;;;;5003426;28;19932;-64
2022/05/24 11:42:17;;;;;;;;;;;23.20;99.90;;;;;;5003786;28;20299;-65
2022/05/24 11:44:44;;;;;;;;;;;23.50;99.90;;;;;;5001926;28;20301;-66
2022/05/24 11:47:31;;;;;;;;;;;23.90;99.90;;;;;;5008748;28;19926;-63
2022/05/24 11:49:58;;;;;;;;;;;24.40;99.90;;;;;;5000092;28;19926;-63
2022/05/24 11:52:43;;;;;;;;;;;24.40;99.90;;;;;;5017417;28;19929;-66
2022/05/24 11:55:09;;;;;;;;;;;24.10;99.90;;;;;;5003103;28;19925;-67
2022/05/24 11:57:42;;;;;;;;;;;24.10;99.90;;;;;;4996222;28;19929;-63
2022/05/24 12:00:11;;;;;;;;;;;24.20;99.90;;;;;;5002014;28;19940;-65
2022/05/24 12:07:54;;;;;;;;;;;24.10;99.90;;;;;;4997445;28;19930;-65
2022/05/24 12:08:30;;;;;;;;;;;24.30;99.90;;;;;;5002854;28;20032;-65
2022/05/24 12:11:15;;;;;;;;;;;24.30;99.90;;;;;;4998713;28;19936;-66
2022/05/24 12:13:44;;;;;;;;;;;24.40;99.90;;;;;;4991911;28;20020;-65
2022/05/24 12:16:30;;;;;;;;;;;24.40;99.70;;;;;;4998774;28;19936;-65
2022/05/24 12:19:06;;;;;;;;;;;24.50;98.80;;;;;;4999124;28;19926;-65
2022/05/24 12:21:38;;;;;;;;;;;24.70;98.40;;;;;;5001830;28;19934;-65
2022/05/24 12:24:30;;;;;;;;;;;24.80;98.90;;;;;;4999985;28;20020;-64
2022/05/24 12:27:09;;;;;;;;;;;24.40;99.30;;;;;;5002879;28;19929;-64
2022/05/24 12:29:39;;;;;;;;;;;23.80;99.30;;;;;;4996874;28;20411;-67
2022/05/24 12:32:06;;;;;;;;;;;23.50;99.80;;;;;;5004203;28;20057;-64
2022/05/24 12:34:33;;;;;;;;;;;23.60;98.60;;;;;;5005744;28;19934;-63
2022/05/24 12:37:14;;;;;;;;;;;23.70;98.30;;;;;;5006437;28;19929;-65
2022/05/24 12:39:41;;;;;;;;;;;23.60;98.90;;;;;;5003548;28;19956;-63
2022/05/24 12:42:12;;;;;;;;;;;23.50;99.80;;;;;;5005590;28;20025;-65
2022/05/24 12:44:45;;;;;;;;;;;23.60;99.90;;;;;;4998882;28;19929;-62
2022/05/24 12:47:14;;;;;;;;;;;23.50;99.90;;;;;;4996608;28;19930;-63
2022/05/24 12:49:50;;;;;;;;;;;23.70;99.50;;;;;;5002096;28;19932;-65
2022/05/24 12:52:24;;;;;;;;;;;24.20;98.80;;;;;;5003549;28;20436;-65
2022/05/24 12:54:53;;;;;;;;;;;24.50;98.30;;;;;;5001050;28;19934;-63
2022/05/24 12:57:21;;;;;;;;;;;24.60;97.60;;;;;;5003259;28;19925;-65
2022/05/24 12:59:55;;;;;;;;;;;24.60;98.60;;;;;;5004173;28;19929;-64
2022/05/24 13:02:40;;;;;;;;;;;24.60;97.30;;;;;;5006224;28;19929;-64
2022/05/24 13:05:06;;;;;;;;;;;24.30;97.20;;;;;;5002933;28;19933;-62
2022/05/24 13:07:36;;;;;;;;;;;24.30;97.70;;;;;;5009628;28;19925;-65
2022/05/24 13:10:06;;;;;;;;;;;24.30;98.10;;;;;;5003537;28;19933;-67
2022/05/24 13:12:33;;;;;;;;;;;24.10;97.50;;;;;;5007324;28;20579;-65
2022/05/24 13:15:00;;;;;;;;;;;23.90;97.40;;;;;;4995766;28;19933;-65
2022/05/24 13:17:28;;;;;;;;;;;23.90;97.40;;;;;;5003296;28;19940;-63
2022/05/24 13:19:59;;;;;;;;;;;24.00;97.90;;;;;;5004821;28;19944;-66
2022/05/24 13:22:41;;;;;;;;;;;23.90;98.50;;;;;;4996783;28;19991;-65
2022/05/24 13:25:13;;;;;;;;;;;24.20;98.30;;;;;;5001673;28;20463;-65
2022/05/24 13:27:50;;;;;;;;;;;24.30;97.20;;;;;;5000148;28;19964;-65
2022/05/24 13:35:51;;;;;;;;;;;24.60;96.40;;;;;;5007182;28;19936;-64
2022/05/24 13:38:23;;;;;;;;;;;24.60;96.30;;;;;;5004979;28;19929;-66
2022/05/24 13:40:54;;;;;;;;;;;24.50;96.40;;;;;;5009412;28;19944;-64
2022/05/24 13:43:38;;;;;;;;;;;24.30;96.40;;;;;;4999214;28;22316;-68
2022/05/24 13:46:21;;;;;;;;;;;24.90;96.40;;;;;;5002540;28;19931;-64
2022/05/24 13:48:55;;;;;;;;;;;25.70;97.00;;;;;;5000015;28;19929;-63
2022/05/24 13:51:30;;;;;;;;;;;26.20;96.30;;;;;;5004841;28;19988;-65
2022/05/24 13:53:57;;;;;;;;;;;26.60;95.20;;;;;;4998523;28;20306;-65
2022/05/24 13:56:25;;;;;;;;;;;26.00;95.30;;;;;;4994941;28;19930;-65
2022/05/24 13:59:06;;;;;;;;;;;25.90;95.50;;;;;;4996837;28;20016;-65
2022/05/24 14:01:36;;;;;;;;;;;26.40;94.80;;;;;;5006688;28;21752;-64
2022/05/24 14:04:10;;;;;;;;;;;26.50;93.50;;;;;;5009785;28;19930;-64
2022/05/24 14:06:39;;;;;;;;;;;26.20;93.50;;;;;;5000950;28;19939;-65
2022/05/24 14:09:05;;;;;;;;;;;26.60;94.00;;;;;;5013072;28;20396;-65
2022/05/24 14:11:34;;;;;;;;;;;27.00;93.90;;;;;;5006737;28;20012;-63
2022/05/24 14:14:01;;;;;;;;;;;27.50;93.70;;;;;;5005379;28;20408;-64
2022/05/24 14:16:31;;;;;;;;;;;27.30;93.50;;;;;;5002576;28;20292;-63
2022/05/24 14:19:00;;;;;;;;;;;27.20;93.20;;;;;;5003210;28;19995;-66
2022/05/24 14:21:28;;;;;;;;;;;26.90;93.00;;;;;;5007259;28;19968;-65
2022/05/24 14:23:55;;;;;;;;;;;26.60;93.30;;;;;;5008873;28;20008;-64
2022/05/24 14:26:23;;;;;;;;;;;26.80;94.00;;;;;;5002547;28;22529;-64
2022/05/24 14:28:51;;;;;;;;;;;27.00;93.60;;;;;;5001233;28;19926;-63
2022/05/24 14:31:19;;;;;;;;;;;27.50;93.80;;;;;;5007719;28;20536;-64
2022/05/24 14:33:46;;;;;;;;;;;27.80;93.80;;;;;;5001228;28;20407;-64
2022/05/24 14:36:13;;;;;;;;;;;27.80;93.30;;;;;;5002446;28;19936;-66
2022/05/24 14:38:40;;;;;;;;;;;27.60;92.00;;;;;;5003025;28;19980;-65
2022/05/24 14:41:17;;;;;;;;;;;26.80;92.30;;;;;;5004440;28;20628;-63
2022/05/24 14:43:59;;;;;;;;;;;25.90;93.20;;;;;;5006003;28;19936;-65
2022/05/24 14:46:27;;;;;;;;;;;26.60;93.70;;;;;;5001433;28;19926;-63
2022/05/24 14:48:54;;;;;;;;;;;27.40;92.40;;;;;;5004673;28;19929;-65
2022/05/24 14:51:23;;;;;;;;;;;27.90;91.60;;;;;;5032636;28;19948;-65
2022/05/24 14:53:50;;;;;;;;;;;28.40;92.00;;;;;;5002205;28;20373;-65
2022/05/24 14:56:33;;;;;;;;;;;28.80;91.20;;;;;;5006689;28;19932;-64
2022/05/24 14:59:00;;;;;;;;;;;28.50;91.30;;;;;;5000731;28;19925;-65
2022/05/24 15:01:26;;;;;;;;;;;28.60;91.50;;;;;;5000407;28;19926;-64
2022/05/24 15:03:56;;;;;;;;;;;28.20;91.90;;;;;;5005613;28;19925;-65
2022/05/24 15:06:23;;;;;;;;;;;28.20;92.20;;;;;;5009475;28;20012;-64
2022/05/24 15:17:08;;;;;;;;;;;28.30;91.40;;;;;;5004845;28;20326;-63
2022/05/24 15:19:37;;;;;;;;;;;27.50;91.20;;;;;;5019907;28;19972;-63
2022/05/24 15:22:04;;;;;;;;;;;27.00;91.00;;;;;;4999521;28;19930;-64
2022/05/24 15:24:39;;;;;;;;;;;26.90;91.40;;;;;;5002011;28;20794;-63
2022/05/24 15:27:11;;;;;;;;;;;26.20;91.30;;;;;;5006886;28;19937;-64